createdAt,value
2023-04-19T00:00:08.965Z,99097.74
2023-04-19T00:05:12.963Z,99093.31
2023-04-19T00:10:14.480Z,99091.78
2023-04-19T00:15:15.544Z,99081.69
2023-04-19T00:20:16.697Z,99077.74
2023-04-19T00:25:17.717Z,99070.57
2023-04-19T00:30:18.806Z,99066.94
2023-04-19T00:35:19.870Z,99067.58
2023-04-19T00:40:21.127Z,99057.98
2023-04-19T00:45:22.127Z,99011.79
2023-04-19T00:50:23.500Z,99050.95
2023-04-19T00:55:24.610Z,99047.34
2023-04-19T01:00:25.780Z,99037.91
2023-04-19T01:05:26.766Z,99034.13
2023-04-19T01:10:27.817Z,99028.13
2023-04-19T01:15:29.567Z,99022.95
2023-04-19T01:20:30.644Z,99012.17
2023-04-19T01:25:31.637Z,99011.64
2023-04-19T01:30:34.935Z,99008.02
2023-04-19T01:35:36.209Z,98998.75
2023-04-19T01:40:37.285Z,98969.95
2023-04-19T01:45:38.885Z,98994.48
2023-04-19T01:50:39.890Z,98993.77
2023-04-19T01:55:40.911Z,98987.26
2023-04-19T02:00:42.025Z,98980.41
2023-04-19T02:05:43.035Z,98983.34
2023-04-19T02:10:48.259Z,98977.77
2023-04-19T02:15:49.785Z,98974.02
2023-04-19T02:20:51.208Z,98961.36
2023-04-19T02:25:52.826Z,98959.29
2023-04-19T02:30:53.839Z,98953.77
2023-04-19T02:35:54.813Z,98948.20
2023-04-19T02:40:55.799Z,98928.81
2023-04-19T02:45:56.938Z,98929.20
2023-04-19T02:50:58.343Z,98929.27
2023-04-19T02:55:59.579Z,98927.14
2023-04-19T03:01:00.852Z,98922.34
2023-04-19T03:06:02.676Z,98915.02
2023-04-19T03:11:06.185Z,98904.77
2023-04-19T03:16:08.302Z,98893.36
2023-04-19T03:21:10.649Z,98888.90
2023-04-19T03:26:27.001Z,98886.84
2023-04-19T03:31:30.578Z,98878.58
2023-04-19T03:36:32.786Z,98875.61
2023-04-19T03:41:34.050Z,98878.33
2023-04-19T03:46:45.542Z,98870.77
2023-04-19T03:51:48.154Z,98869.58
2023-04-19T03:56:49.401Z,98863.91
2023-04-19T04:01:50.720Z,98864.08
2023-04-19T04:06:52.561Z,98864.38
2023-04-19T04:11:53.720Z,98867.05
2023-04-19T04:16:55.255Z,98866.96
2023-04-19T04:21:56.567Z,98868.08
2023-04-19T04:27:00.171Z,98871.59
2023-04-19T04:32:10.389Z,98876.66
2023-04-19T04:37:13.846Z,98870.61
2023-04-19T04:42:15.368Z,98876.81
2023-04-19T04:47:16.911Z,98874.64
2023-04-19T04:52:23.530Z,98880.52
2023-04-19T04:57:40.516Z,98877.39
2023-04-19T05:02:43.545Z,98875.69
2023-04-19T05:07:45.206Z,98867.17
2023-04-19T05:12:46.577Z,98869.92
2023-04-19T05:17:48.183Z,98865.01
2023-04-19T05:22:49.702Z,98862.82
2023-04-19T05:27:51.262Z,98860.58
2023-04-19T05:32:52.692Z,98859.43
2023-04-19T05:37:53.970Z,98857.81
2023-04-19T05:42:55.000Z,98858.18
2023-04-19T05:47:56.326Z,98849.66
2023-04-19T05:53:23.608Z,98855.61
2023-04-19T05:58:27.394Z,98852.38
2023-04-19T06:03:31.223Z,98848.92
2023-04-19T06:08:33.800Z,98849.86
2023-04-19T06:13:35.372Z,98850.61
2023-04-19T06:18:36.646Z,98854.96
2023-04-19T06:23:37.805Z,98748.10
2023-04-19T06:28:38.818Z,98867.64
2023-04-19T06:33:40.033Z,98863.95
2023-04-19T06:38:41.156Z,98869.95
2023-04-19T06:43:42.213Z,98865.19
2023-04-19T06:48:43.195Z,98869.38
2023-04-19T06:53:44.167Z,98872.08
2023-04-19T06:58:45.230Z,98866.23
2023-04-19T07:03:46.468Z,98865.11
2023-04-19T07:08:50.345Z,98870.92
2023-04-19T07:13:51.846Z,98874.76
2023-04-19T07:18:53.353Z,98877.60
2023-04-19T07:23:54.309Z,98879.88
2023-04-19T07:28:56.394Z,98877.77
2023-04-19T07:33:57.396Z,98877.58
2023-04-19T07:38:58.425Z,98882.09
2023-04-19T07:43:59.542Z,98889.84
2023-04-19T07:49:00.542Z,98892.70
2023-04-19T07:54:01.514Z,98890.52
2023-04-19T07:59:08.417Z,98887.98
2023-04-19T08:04:10.542Z,98890.54
2023-04-19T08:09:11.855Z,98892.21
2023-04-19T08:14:30.624Z,98889.36
2023-04-19T08:19:34.035Z,98886.73
2023-04-19T08:24:35.080Z,98885.81
2023-04-19T08:29:38.123Z,98884.69
2023-04-19T08:34:39.680Z,98881.59
2023-04-19T08:39:41.071Z,98876.92
2023-04-19T08:45:02.256Z,98883.24
2023-04-19T08:50:17.476Z,98889.98
2023-04-19T08:55:27.087Z,98893.68
2023-04-19T09:00:28.318Z,98889.61
2023-04-19T09:05:30.563Z,98891.60
2023-04-19T09:10:31.841Z,98892.80
2023-04-19T09:15:38.682Z,98894.07
2023-04-19T09:20:42.058Z,98899.38
2023-04-19T09:26:19.287Z,98895.73
2023-04-19T09:31:43.463Z,98897.23
2023-04-19T09:36:52.446Z,98888.57
2023-04-19T09:41:58.685Z,98892.20
2023-04-19T09:46:59.992Z,98888.69
2023-04-19T09:52:03.057Z,98894.91
2023-04-19T09:57:04.844Z,98870.27
2023-04-19T10:02:07.040Z,98895.56
2023-04-19T10:07:29.090Z,98891.70
2023-04-19T10:12:52.281Z,98891.55
2023-04-19T10:17:53.091Z,98894.98
2023-04-19T10:22:54.675Z,98891.52
2023-04-19T10:27:56.886Z,98893.52
2023-04-19T10:33:02.450Z,98894.81
2023-04-19T10:38:15.684Z,98896.65
2023-04-19T10:43:18.706Z,98905.82
2023-04-19T10:48:35.011Z,98911.19
2023-04-19T10:53:57.277Z,98918.40
2023-04-19T10:59:01.948Z,98920.66
2023-04-19T11:04:03.745Z,98929.33
2023-04-19T11:09:06.492Z,98925.95
2023-04-19T11:14:08.868Z,98918.68
2023-04-19T11:19:09.934Z,98917.27
2023-04-19T11:24:12.323Z,98921.96
2023-04-19T11:29:14.029Z,98921.76
2023-04-19T11:34:15.477Z,98926.38
2023-04-19T11:39:17.168Z,98928.10
2023-04-19T11:44:19.688Z,98919.49
2023-04-19T11:49:28.776Z,98919.60
2023-04-19T11:54:29.872Z,98911.72
2023-04-19T11:59:32.808Z,98919.91
2023-04-19T12:04:34.821Z,98932.65
2023-04-19T12:09:36.429Z,98935.80
2023-04-19T12:14:38.358Z,98938.95
2023-04-19T12:19:45.496Z,98944.00
2023-04-19T12:24:46.568Z,98941.03
2023-04-19T12:29:47.516Z,98944.23
2023-04-19T12:34:48.486Z,98945.36
2023-04-19T12:39:49.462Z,98944.67
2023-04-19T12:44:50.442Z,98938.28
2023-04-19T12:49:51.390Z,98937.17
2023-04-19T12:54:52.396Z,98939.17
2023-04-19T12:59:53.449Z,98938.48
2023-04-19T13:04:54.961Z,98943.27
2023-04-19T13:09:56.807Z,98941.41
2023-04-19T13:14:58.293Z,98942.25
2023-04-19T13:19:59.309Z,98938.17
2023-04-19T13:25:00.711Z,98929.70
2023-04-19T13:30:02.009Z,98929.66
2023-04-19T13:35:05.103Z,98929.70
2023-04-19T13:40:17.863Z,98933.15
2023-04-19T13:45:20.303Z,98936.52
2023-04-19T13:50:21.311Z,98939.14
2023-04-19T13:55:22.319Z,98942.07
2023-04-19T14:00:23.455Z,98944.34
2023-04-19T14:05:24.583Z,98939.27
2023-04-19T14:10:25.636Z,98937.04
2023-04-19T14:15:26.670Z,98933.37
2023-04-19T14:20:27.750Z,98930.91
2023-04-19T14:25:28.748Z,98925.38
2023-04-19T14:30:31.135Z,98924.69
2023-04-19T14:35:32.447Z,98929.85
2023-04-19T14:40:33.502Z,98928.69
2023-04-19T14:45:34.577Z,98930.36
2023-04-19T14:50:35.643Z,98937.62
2023-04-19T14:55:37.389Z,98936.20
2023-04-19T15:00:38.388Z,98934.55
2023-04-19T15:05:39.591Z,98932.61
2023-04-19T15:10:40.770Z,98929.36
2023-04-19T15:15:41.732Z,98935.91
2023-04-19T15:20:42.674Z,98940.83
2023-04-19T15:25:44.205Z,98942.34
2023-04-19T15:30:56.080Z,98937.73
2023-04-19T15:35:58.983Z,98940.04
2023-04-19T15:41:03.089Z,98941.31
2023-04-19T15:46:04.179Z,98954.08
2023-04-19T15:51:06.496Z,98960.68
2023-04-19T15:56:08.068Z,98971.67
2023-04-19T16:01:12.943Z,98966.27
2023-04-19T16:06:14.255Z,98974.56
2023-04-19T16:11:17.180Z,98975.34
2023-04-19T16:16:20.264Z,98976.44
2023-04-19T16:21:22.413Z,98979.41
2023-04-19T16:26:25.079Z,98985.23
2023-04-19T16:31:26.542Z,98989.25
2023-04-19T16:36:27.742Z,98991.41
2023-04-19T16:41:29.291Z,98988.45
2023-04-19T16:46:30.704Z,98987.17
2023-04-19T16:51:32.122Z,98983.70
2023-04-19T16:56:33.177Z,98990.95
2023-04-19T17:01:34.148Z,98986.48
2023-04-19T17:06:35.210Z,98979.98
2023-04-19T17:11:36.185Z,98981.45
2023-04-19T17:16:37.207Z,98990.91
2023-04-19T17:21:38.222Z,98991.28
2023-04-19T17:26:39.429Z,98990.55
2023-04-19T17:31:40.486Z,98989.10
2023-04-19T17:36:41.773Z,98994.00
2023-04-19T17:41:44.010Z,98999.38
2023-04-19T17:46:45.234Z,99000.53
2023-04-19T17:51:46.980Z,99005.63
2023-04-19T17:56:49.675Z,99009.61
2023-04-19T18:01:50.679Z,99020.04
2023-04-19T18:06:51.778Z,99020.86
2023-04-19T18:11:52.959Z,99026.99
2023-04-19T18:16:54.116Z,99035.95
2023-04-19T18:21:55.378Z,99040.22
2023-04-19T18:26:57.570Z,99045.51
2023-04-19T18:31:58.579Z,99044.21
2023-04-19T18:37:02.271Z,99045.27
2023-04-19T18:42:03.271Z,99046.90
2023-04-19T18:47:05.951Z,99048.45
2023-04-19T18:52:06.920Z,99048.71
2023-04-19T18:57:22.460Z,99043.98
2023-04-19T19:02:25.635Z,99045.54
2023-04-19T19:12:32.076Z,99047.41
2023-04-19T19:17:33.122Z,99050.48
2023-04-19T19:22:34.402Z,99059.42
2023-04-19T19:27:36.911Z,99058.31
2023-04-19T19:32:39.520Z,99065.59
2023-04-19T19:37:40.648Z,99068.48
2023-04-19T19:42:41.746Z,99067.55
2023-04-19T19:47:45.326Z,99067.20
2023-04-19T19:52:47.096Z,99070.08
2023-04-19T19:58:23.790Z,99077.71
2023-04-19T20:03:10.208Z,99068.13
2023-04-19T20:08:13.179Z,99065.36
2023-04-19T20:13:14.444Z,99061.16
2023-04-19T20:18:17.122Z,99065.25
2023-04-19T20:23:19.262Z,99055.91
2023-04-19T20:28:20.387Z,99058.63
2023-04-19T20:33:21.853Z,99061.19
2023-04-19T20:38:23.720Z,99062.66
2023-04-19T20:43:24.795Z,99060.77
2023-04-19T20:48:25.775Z,99059.41
2023-04-19T20:53:26.802Z,99060.25
2023-04-19T20:58:27.825Z,99056.79
2023-04-19T21:03:29.051Z,99053.41
2023-04-19T21:08:30.910Z,99056.07
2023-04-19T21:13:35.654Z,99055.29
2023-04-19T21:18:36.952Z,99049.81
2023-04-19T21:23:38.376Z,99052.90
2023-04-19T21:28:39.667Z,99051.64
2023-04-19T21:33:43.390Z,99051.92
2023-04-19T21:38:44.435Z,99045.52
2023-04-19T21:43:46.261Z,99046.14
2023-04-19T21:48:47.287Z,99046.02
2023-04-19T21:53:50.106Z,99048.92
2023-04-19T21:58:51.062Z,99052.27
2023-04-19T22:03:55.994Z,99058.22
2023-04-19T22:09:02.373Z,99062.98
2023-04-19T22:14:03.877Z,99065.64
2023-04-19T22:19:04.883Z,99069.10
2023-04-19T22:24:06.728Z,99072.06
2023-04-19T22:29:07.803Z,99073.63
2023-04-19T22:34:08.801Z,99074.23
2023-04-19T22:39:09.863Z,99078.16
2023-04-19T22:44:11.165Z,99077.17
2023-04-19T22:49:12.638Z,99078.05
2023-04-19T22:54:16.819Z,99077.20
2023-04-19T22:59:18.216Z,99077.05
2023-04-19T23:04:19.766Z,99073.55
2023-04-19T23:09:23.904Z,99072.64
2023-04-19T23:14:30.692Z,99069.14
2023-04-19T23:19:31.685Z,99067.78
2023-04-19T23:24:35.423Z,99058.98
2023-04-19T23:29:36.451Z,99054.79
2023-04-19T23:34:37.472Z,99050.20
2023-04-19T23:39:39.150Z,99044.34
2023-04-19T23:44:43.818Z,99043.43
2023-04-19T23:49:51.734Z,99041.53
2023-04-19T23:54:52.721Z,99039.73
2023-04-19T23:59:53.716Z,99042.35
